createdAt,value
2018-04-14T00:01:09.420Z,99.90
2018-04-14T00:03:36.978Z,99.90
2018-04-14T00:06:04.433Z,99.90
2018-04-14T00:08:31.888Z,99.90
2018-04-14T00:10:59.348Z,99.90
2018-04-14T00:13:26.798Z,99.90
2018-04-14T00:15:54.267Z,99.90
2018-04-14T00:18:21.755Z,99.90
2018-04-14T00:20:49.224Z,99.90
2018-04-14T00:23:17.452Z,99.90
2018-04-14T00:25:44.943Z,99.90
2018-04-14T00:28:13.171Z,99.90
2018-04-14T00:30:40.629Z,99.90
2018-04-14T00:33:08.095Z,99.90
2018-04-14T00:35:35.565Z,99.90
2018-04-14T00:38:03.023Z,99.90
2018-04-14T00:40:30.465Z,99.90
2018-04-14T00:42:57.924Z,99.90
2018-04-14T00:45:25.405Z,99.90
2018-04-14T00:47:52.858Z,99.90
2018-04-14T00:50:20.391Z,99.90
2018-04-14T00:52:48.650Z,99.90
2018-04-14T00:55:16.918Z,99.90
2018-04-14T00:57:45.375Z,99.90
2018-04-14T01:00:13.607Z,99.90
2018-04-14T01:02:41.071Z,99.90
2018-04-14T01:05:08.636Z,99.90
2018-04-14T01:07:36.076Z,99.90
2018-04-14T01:10:03.555Z,99.90
2018-04-14T01:12:31.836Z,99.90
2018-04-14T01:14:59.389Z,99.90
2018-04-14T01:17:26.851Z,99.90
2018-04-14T01:19:54.295Z,99.90
2018-04-14T01:22:21.751Z,99.90
2018-04-14T01:24:49.227Z,99.90
2018-04-14T01:27:17.456Z,99.90
2018-04-14T01:29:45.027Z,99.90
2018-04-14T01:32:12.891Z,99.90
2018-04-14T01:34:40.360Z,99.90
2018-04-14T01:37:07.852Z,99.90
2018-04-14T01:39:36.117Z,99.90
2018-04-14T01:42:04.345Z,99.90
2018-04-14T01:44:31.832Z,99.90
2018-04-14T01:46:59.295Z,99.90
2018-04-14T01:49:26.734Z,99.90
2018-04-14T01:51:54.358Z,99.90
2018-04-14T01:54:21.819Z,99.90
2018-04-14T01:56:49.303Z,99.90
2018-04-14T01:59:16.883Z,99.90
2018-04-14T02:01:44.341Z,99.90
2018-04-14T02:04:11.789Z,99.90
2018-04-14T02:06:40.780Z,99.90
2018-04-14T02:09:08.367Z,99.90
2018-04-14T02:11:36.608Z,99.90
2018-04-14T02:14:04.079Z,99.90
2018-04-14T02:16:31.563Z,99.90
2018-04-14T02:18:59.809Z,99.90
2018-04-14T02:21:27.273Z,99.90
2018-04-14T02:23:55.441Z,99.90
2018-04-14T02:26:24.392Z,99.90
2018-04-14T02:28:51.834Z,99.90
2018-04-14T02:31:19.329Z,99.90
2018-04-14T02:33:46.881Z,99.90
2018-04-14T02:36:14.361Z,99.90
2018-04-14T02:38:41.843Z,99.90
2018-04-14T02:41:10.050Z,99.90
2018-04-14T02:43:37.516Z,99.90
2018-04-14T02:46:05.001Z,99.90
2018-04-14T02:48:33.215Z,99.90
2018-04-14T02:51:00.743Z,99.90
2018-04-14T02:53:28.207Z,99.90
2018-04-14T02:55:55.685Z,99.90
2018-04-14T02:58:23.930Z,99.90
2018-04-14T03:00:51.372Z,99.90
2018-04-14T03:03:18.815Z,99.90
2018-04-14T03:05:46.350Z,99.90
2018-04-14T03:08:13.783Z,99.90
2018-04-14T03:10:41.245Z,99.90
2018-04-14T03:13:08.721Z,99.90
2018-04-14T03:15:36.217Z,99.90
2018-04-14T03:18:03.684Z,99.90
2018-04-14T03:20:31.347Z,99.90
2018-04-14T03:22:58.811Z,99.90
2018-04-14T03:25:26.270Z,99.90
2018-04-14T03:27:54.540Z,99.90
2018-04-14T03:30:22.748Z,99.90
2018-04-14T03:32:50.267Z,99.90
2018-04-14T03:35:17.747Z,99.90
2018-04-14T03:37:45.974Z,99.90
2018-04-14T03:40:13.427Z,99.90
2018-04-14T03:42:40.927Z,99.90
2018-04-14T03:45:08.451Z,99.90
2018-04-14T03:47:35.906Z,99.90
2018-04-14T03:50:03.376Z,99.90
2018-04-14T03:52:30.839Z,99.90
2018-04-14T03:54:58.325Z,99.90
2018-04-14T03:57:26.542Z,99.90
2018-04-14T03:59:54.012Z,99.90
2018-04-14T04:02:21.567Z,99.90
2018-04-14T04:04:49.127Z,99.90
2018-04-14T04:07:16.592Z,99.90
2018-04-14T04:09:44.074Z,99.90
2018-04-14T04:12:12.416Z,99.90
2018-04-14T04:14:39.875Z,99.90
2018-04-14T04:17:07.331Z,99.90
2018-04-14T04:19:46.795Z,99.90
2018-04-14T04:22:26.296Z,99.90
2018-04-14T04:27:59.358Z,99.90
2018-04-14T04:30:27.576Z,99.90
2018-04-14T04:32:55.046Z,99.90
2018-04-14T04:35:22.519Z,99.90
2018-04-14T04:37:49.964Z,99.90
2018-04-14T04:40:17.442Z,99.90
2018-04-14T04:42:45.003Z,99.90
2018-04-14T04:45:12.763Z,99.90
2018-04-14T04:47:40.245Z,99.90
2018-04-14T04:50:08.483Z,99.90
2018-04-14T04:52:35.955Z,99.90
2018-04-14T04:55:04.168Z,99.90
2018-04-14T04:57:31.616Z,99.90
2018-04-14T04:59:59.055Z,99.90
2018-04-14T05:02:27.323Z,99.90
2018-04-14T05:04:54.774Z,99.90
2018-04-14T05:07:22.235Z,99.90
2018-04-14T05:09:49.746Z,99.90
2018-04-14T05:12:17.251Z,99.90
2018-04-14T05:14:44.806Z,99.90
2018-04-14T05:17:12.272Z,99.90
2018-04-14T05:19:39.802Z,99.90
2018-04-14T05:22:07.396Z,99.90
2018-04-14T05:24:35.619Z,99.90
2018-04-14T05:27:03.089Z,99.90
2018-04-14T05:29:30.671Z,99.90
2018-04-14T05:31:58.126Z,99.90
2018-04-14T05:34:25.603Z,99.90
2018-04-14T05:36:53.946Z,99.90
2018-04-14T05:39:21.395Z,99.90
2018-04-14T05:41:48.843Z,99.90
2018-04-14T05:44:16.296Z,99.90
2018-04-14T05:46:43.788Z,99.90
2018-04-14T05:49:11.322Z,99.90
2018-04-14T05:51:38.952Z,99.90
2018-04-14T05:54:06.419Z,99.90
2018-04-14T05:56:33.905Z,99.90
2018-04-14T05:59:01.343Z,99.90
2018-04-14T06:01:28.790Z,99.90
2018-04-14T06:03:56.267Z,99.90
2018-04-14T06:06:23.727Z,99.90
2018-04-14T06:08:51.216Z,99.90
2018-04-14T06:11:19.450Z,99.90
2018-04-14T06:13:46.912Z,99.90
2018-04-14T06:16:14.393Z,99.90
2018-04-14T06:18:41.848Z,99.90
2018-04-14T06:21:09.404Z,99.90
2018-04-14T06:23:36.875Z,99.90
2018-04-14T06:26:05.678Z,99.90
2018-04-14T06:28:33.160Z,99.90
2018-04-14T06:31:00.680Z,99.90
2018-04-14T06:33:28.927Z,99.90
2018-04-14T06:35:56.481Z,99.90
2018-04-14T06:38:23.953Z,99.90
2018-04-14T06:40:51.421Z,99.90
2018-04-14T06:43:18.863Z,99.90
2018-04-14T06:45:46.319Z,99.50
2018-04-14T06:48:13.786Z,98.40
2018-04-14T06:50:41.292Z,98.30
2018-04-14T06:53:08.731Z,98.60
2018-04-14T06:55:36.206Z,97.90
2018-04-14T06:58:03.651Z,97.70
2018-04-14T07:00:31.176Z,97.20
2018-04-14T07:02:58.650Z,96.30
2018-04-14T07:05:26.915Z,96.20
2018-04-14T07:07:54.387Z,96.10
2018-04-14T07:10:22.591Z,94.20
2018-04-14T07:12:50.073Z,94.20
2018-04-14T07:15:17.530Z,93.80
2018-04-14T07:17:44.988Z,92.80
2018-04-14T07:20:12.458Z,92.50
2018-04-14T07:22:40.024Z,91.90
2018-04-14T07:25:07.490Z,91.40
2018-04-14T07:27:35.732Z,91.10
2018-04-14T07:30:03.197Z,91.10
2018-04-14T07:32:30.755Z,91.10
2018-04-14T07:34:58.211Z,87.60
2018-04-14T07:37:25.765Z,85.90
2018-04-14T07:39:53.265Z,85.80
2018-04-14T07:42:21.485Z,84.70
2018-04-14T07:44:48.970Z,84.40
2018-04-14T07:47:16.532Z,84.20
2018-04-14T07:49:43.973Z,87.40
2018-04-14T07:52:11.496Z,86.10
2018-04-14T07:54:38.935Z,81.10
2018-04-14T07:57:06.384Z,83.80
2018-04-14T07:59:34.637Z,75.90
2018-04-14T08:02:02.105Z,75.90
2018-04-14T08:04:30.344Z,79.80
2018-04-14T08:06:57.792Z,79.50
2018-04-14T08:09:25.235Z,75.70
2018-04-14T08:11:52.714Z,74.30
2018-04-14T08:14:20.191Z,76.10
2018-04-14T08:16:47.639Z,73.20
2018-04-14T08:19:15.107Z,74.30
2018-04-14T08:21:42.582Z,75.10
2018-04-14T08:24:10.789Z,69.30
2018-04-14T08:26:38.284Z,69.20
2018-04-14T08:29:05.749Z,69.50
2018-04-14T08:31:33.225Z,70.30
2018-04-14T08:34:01.468Z,73.30
2018-04-14T08:36:28.928Z,73.30
2018-04-14T08:38:56.373Z,71.80
2018-04-14T08:41:23.835Z,72.10
2018-04-14T08:43:51.275Z,74.20
2018-04-14T08:46:18.751Z,79.50
2018-04-14T08:48:46.204Z,79.20
2018-04-14T08:51:13.688Z,77.00
2018-04-14T08:53:41.149Z,83.10
2018-04-14T08:56:08.591Z,81.80
2018-04-14T08:58:36.073Z,83.40
2018-04-14T09:01:03.535Z,81.20
2018-04-14T09:03:31.839Z,77.50
2018-04-14T09:05:59.333Z,77.60
2018-04-14T09:08:26.768Z,69.10
2018-04-14T09:10:54.225Z,64.60
2018-04-14T09:13:21.698Z,67.30
2018-04-14T09:15:52.072Z,72.00
2018-04-14T09:18:19.510Z,74.20
2018-04-14T09:20:47.756Z,76.00
2018-04-14T09:23:15.210Z,75.80
2018-04-14T09:25:42.675Z,78.60
2018-04-14T09:28:10.155Z,81.40
2018-04-14T09:30:38.367Z,80.80
2018-04-14T09:33:05.835Z,80.70
2018-04-14T09:35:33.287Z,79.80
2018-04-14T09:38:00.837Z,76.90
2018-04-14T09:40:28.277Z,74.40
2018-04-14T09:42:55.791Z,73.30
2018-04-14T09:45:23.236Z,63.20
2018-04-14T09:47:50.677Z,61.20
2018-04-14T09:50:18.136Z,60.80
2018-04-14T09:52:45.612Z,62.90
2018-04-14T09:55:13.075Z,63.80
2018-04-14T09:57:40.516Z,61.70
2018-04-14T10:00:07.988Z,61.80
2018-04-14T10:02:41.264Z,63.60
2018-04-14T10:05:08.747Z,59.70
2018-04-14T10:07:36.202Z,54.80
2018-04-14T10:10:03.688Z,56.50
2018-04-14T10:12:31.951Z,54.70
2018-04-14T10:15:00.202Z,55.60
2018-04-14T10:17:27.686Z,55.60
2018-04-14T10:19:55.901Z,54.30
2018-04-14T10:22:23.382Z,54.30
2018-04-14T10:24:51.630Z,58.40
2018-04-14T10:27:19.186Z,59.00
2018-04-14T10:29:46.672Z,61.60
2018-04-14T10:32:14.142Z,59.80
2018-04-14T10:34:41.586Z,60.30
2018-04-14T10:37:09.052Z,61.60
2018-04-14T10:39:36.547Z,62.40
2018-04-14T10:42:03.935Z,54.70
2018-04-14T10:44:31.413Z,56.00
2018-04-14T10:46:58.850Z,53.20
2018-04-14T10:49:26.314Z,51.00
2018-04-14T10:51:53.790Z,46.40
2018-04-14T10:54:21.248Z,52.00
2018-04-14T10:56:48.694Z,55.00
2018-04-14T10:59:16.930Z,48.80
2018-04-14T11:01:44.408Z,48.80
2018-04-14T11:04:11.890Z,49.10
2018-04-14T11:06:39.361Z,49.80
2018-04-14T11:09:06.807Z,45.60
2018-04-14T11:11:34.257Z,43.40
2018-04-14T11:14:01.725Z,43.30
2018-04-14T11:16:29.188Z,47.60
2018-04-14T11:18:56.629Z,48.50
2018-04-14T11:21:24.135Z,47.60
2018-04-14T11:23:51.587Z,49.20
2018-04-14T11:26:19.035Z,49.60
2018-04-14T11:28:47.273Z,51.40
2018-04-14T11:31:14.791Z,51.20
2018-04-14T11:33:42.194Z,54.10
2018-04-14T11:36:09.657Z,52.30
2018-04-14T11:38:37.127Z,51.00
2018-04-14T11:41:05.361Z,47.10
2018-04-14T11:43:32.832Z,46.40
2018-04-14T11:46:00.310Z,51.90
2018-04-14T11:48:28.013Z,52.00
2018-04-14T11:50:55.533Z,52.80
2018-04-14T11:53:22.930Z,53.70
2018-04-14T11:55:50.408Z,51.10
2018-04-14T11:58:17.882Z,52.70
2018-04-14T12:00:45.347Z,56.40
2018-04-14T12:03:12.838Z,54.20
2018-04-14T12:05:41.052Z,55.10
2018-04-14T12:08:08.497Z,54.70
2018-04-14T12:10:36.045Z,54.70
2018-04-14T12:13:03.542Z,54.00
2018-04-14T12:15:31.025Z,57.30
2018-04-14T12:17:58.477Z,61.80
2018-04-14T12:20:25.937Z,60.30
2018-04-14T12:22:54.151Z,57.20
2018-04-14T12:25:21.626Z,56.70
2018-04-14T12:27:49.069Z,57.50
2018-04-14T12:30:16.553Z,56.00
2018-04-14T12:32:44.087Z,54.80
2018-04-14T12:35:11.662Z,54.60
2018-04-14T12:37:39.245Z,47.90
2018-04-14T12:40:07.551Z,46.60
2018-04-14T12:42:35.072Z,46.60
2018-04-14T12:45:02.643Z,46.90
2018-04-14T12:47:30.208Z,49.00
2018-04-14T12:49:57.728Z,44.80
2018-04-14T12:52:25.256Z,47.00
2018-04-14T12:54:52.788Z,43.80
2018-04-14T12:57:21.095Z,48.70
2018-04-14T12:59:48.630Z,48.70
2018-04-14T13:02:16.912Z,51.90
2018-04-14T13:04:44.464Z,51.90
2018-04-14T13:07:12.002Z,54.50
2018-04-14T13:09:40.326Z,52.00
2018-04-14T13:12:07.834Z,52.00
2018-04-14T13:14:35.381Z,49.90
2018-04-14T13:17:02.940Z,50.80
2018-04-14T13:19:30.476Z,47.90
2018-04-14T13:21:58.014Z,52.30
2018-04-14T13:24:25.576Z,51.70
2018-04-14T13:26:53.132Z,54.60
2018-04-14T13:29:20.703Z,54.80
2018-04-14T13:31:48.202Z,54.90
2018-04-14T13:34:15.698Z,53.20
2018-04-14T13:36:43.277Z,52.40
2018-04-14T13:39:10.823Z,55.60
2018-04-14T13:41:38.332Z,58.30
2018-04-14T13:44:05.925Z,59.90
2018-04-14T13:46:33.452Z,61.40
2018-04-14T13:49:00.994Z,63.50
2018-04-14T13:51:28.512Z,61.70
2018-04-14T13:53:56.058Z,60.00
2018-04-14T13:56:23.654Z,58.20
2018-04-14T13:58:51.209Z,58.00
2018-04-14T14:01:18.788Z,61.30
2018-04-14T14:03:46.289Z,59.80
2018-04-14T14:06:14.566Z,59.80
2018-04-14T14:08:42.119Z,59.90
2018-04-14T14:11:09.983Z,58.30
2018-04-14T14:13:38.274Z,62.80
2018-04-14T14:16:05.847Z,62.60
2018-04-14T14:18:33.389Z,60.50
2018-04-14T14:21:01.669Z,61.70
2018-04-14T14:23:29.186Z,61.30
2018-04-14T14:25:56.720Z,58.10
2018-04-14T14:28:24.277Z,58.30
2018-04-14T14:30:51.819Z,56.60
2018-04-14T14:33:19.414Z,56.40
2018-04-14T14:35:46.945Z,57.10
2018-04-14T14:38:15.325Z,58.30
2018-04-14T14:40:42.902Z,58.30
2018-04-14T14:43:10.495Z,60.20
2018-04-14T14:45:38.817Z,63.80
2018-04-14T14:48:06.363Z,63.70
2018-04-14T14:50:33.911Z,76.00
2018-04-14T14:53:01.489Z,70.00
2018-04-14T14:55:29.042Z,73.80
2018-04-14T14:57:56.590Z,99.90
2018-04-14T15:00:24.845Z,99.90
2018-04-14T15:02:53.193Z,99.90
2018-04-14T15:05:20.663Z,98.80
2018-04-14T15:07:48.151Z,95.00
2018-04-14T15:10:16.459Z,92.00
2018-04-14T15:12:43.990Z,91.60
2018-04-14T15:15:12.230Z,85.30
2018-04-14T15:17:39.719Z,85.30
2018-04-14T15:20:07.959Z,89.60
2018-04-14T15:22:35.422Z,89.50
2018-04-14T15:25:02.876Z,90.70
2018-04-14T15:27:30.327Z,88.90
2018-04-14T15:29:57.788Z,90.10
2018-04-14T15:32:25.244Z,83.40
2018-04-14T15:34:52.732Z,88.50
2018-04-14T15:37:20.968Z,89.60
2018-04-14T15:39:48.548Z,89.30
2018-04-14T15:42:16.023Z,90.60
2018-04-14T15:44:44.260Z,90.70
2018-04-14T15:47:11.731Z,90.60
2018-04-14T15:49:39.311Z,90.70
2018-04-14T15:52:06.822Z,89.40
2018-04-14T15:54:34.327Z,90.10
2018-04-14T15:57:09.005Z,88.90
2018-04-14T15:59:36.475Z,89.20
2018-04-14T16:02:04.017Z,89.10
2018-04-14T16:04:31.539Z,90.20
2018-04-14T16:06:59.005Z,90.90
2018-04-14T16:09:26.472Z,90.90
2018-04-14T16:11:53.911Z,90.60
2018-04-14T16:14:21.397Z,91.40
2018-04-14T16:16:48.915Z,90.60
2018-04-14T16:19:17.182Z,90.40
2018-04-14T16:21:44.658Z,90.50
2018-04-14T16:24:12.994Z,90.40
2018-04-14T16:26:40.451Z,90.30
2018-04-14T16:29:07.925Z,89.60
2018-04-14T16:31:35.391Z,88.90
2018-04-14T16:34:03.657Z,90.90
2018-04-14T16:36:31.173Z,90.70
2018-04-14T16:38:58.725Z,90.40
2018-04-14T16:41:26.186Z,90.90
2018-04-14T16:43:53.679Z,91.20
2018-04-14T16:46:21.233Z,90.70
2018-04-14T16:48:48.685Z,90.70
2018-04-14T16:51:16.143Z,90.90
2018-04-14T16:53:43.702Z,91.30
2018-04-14T16:56:11.188Z,91.10
2018-04-14T16:58:38.654Z,91.10
2018-04-14T17:01:06.869Z,91.10
2018-04-14T17:03:34.340Z,91.30
2018-04-14T17:06:01.833Z,91.50
2018-04-14T17:08:29.297Z,91.40
2018-04-14T17:10:57.504Z,91.00
2018-04-14T17:13:24.972Z,90.90
2018-04-14T17:15:52.439Z,91.40
2018-04-14T17:18:19.918Z,91.20
2018-04-14T17:20:47.368Z,91.50
2018-04-14T17:23:14.817Z,91.60
2018-04-14T17:25:42.343Z,91.00
2018-04-14T17:28:09.829Z,91.30
2018-04-14T17:30:37.334Z,92.00
2018-04-14T17:33:04.829Z,91.60
2018-04-14T17:35:32.376Z,91.50
2018-04-14T17:37:59.935Z,91.40
2018-04-14T17:40:27.399Z,91.00
2018-04-14T17:42:54.954Z,90.50
2018-04-14T17:45:22.453Z,90.70
2018-04-14T17:47:49.900Z,91.30
2018-04-14T17:50:17.377Z,91.50
2018-04-14T17:52:44.986Z,90.90
2018-04-14T17:55:12.481Z,92.50
2018-04-14T17:57:40.818Z,93.10
2018-04-14T18:00:08.311Z,93.50
2018-04-14T18:02:35.851Z,94.20
2018-04-14T18:05:03.392Z,95.60
2018-04-14T18:07:30.940Z,95.90
2018-04-14T18:09:58.403Z,96.00
2018-04-14T18:12:26.279Z,95.80
2018-04-14T18:14:53.833Z,95.20
2018-04-14T18:17:21.479Z,95.50
2018-04-14T18:19:49.096Z,95.20
2018-04-14T18:22:17.455Z,94.70
2018-04-14T18:24:44.923Z,95.40
2018-04-14T18:27:12.392Z,95.50
2018-04-14T18:29:39.855Z,95.60
2018-04-14T18:32:07.328Z,96.70
2018-04-14T18:34:35.602Z,96.40
2018-04-14T18:37:03.863Z,96.20
2018-04-14T18:39:31.741Z,96.20
2018-04-14T18:42:02.334Z,96.30
2018-04-14T18:44:29.839Z,96.80
2018-04-14T18:46:57.348Z,96.70
2018-04-14T18:49:24.926Z,96.70
2018-04-14T18:51:52.449Z,96.30
2018-04-14T18:54:19.953Z,96.60
2018-04-14T18:56:47.411Z,96.30
2018-04-14T18:59:14.971Z,97.60
2018-04-14T19:01:42.456Z,97.20
2018-04-14T19:04:10.024Z,96.90
2018-04-14T19:06:37.665Z,96.40
2018-04-14T19:09:05.919Z,96.60
2018-04-14T19:11:33.414Z,96.50
2018-04-14T19:14:00.910Z,97.00
2018-04-14T19:16:28.363Z,96.90
2018-04-14T19:18:55.839Z,96.80
2018-04-14T19:21:23.406Z,97.00
2018-04-14T19:23:50.914Z,96.50
2018-04-14T19:26:18.412Z,96.80
2018-04-14T19:28:46.088Z,96.60
2018-04-14T19:31:13.747Z,96.40
2018-04-14T19:33:41.293Z,96.90
2018-04-14T19:36:08.870Z,96.30
2018-04-14T19:38:36.334Z,96.70
2018-04-14T19:41:03.775Z,96.50
2018-04-14T19:43:31.304Z,96.60
2018-04-14T19:45:59.495Z,96.40
2018-04-14T19:48:26.952Z,96.40
2018-04-14T19:50:54.575Z,96.30
2018-04-14T19:53:22.087Z,96.70
2018-04-14T19:55:49.544Z,96.60
2018-04-14T19:58:17.798Z,97.00
2018-04-14T20:00:45.262Z,97.00
2018-04-14T20:03:14.385Z,97.10
2018-04-14T20:05:42.616Z,97.10
2018-04-14T20:08:10.212Z,97.10
2018-04-14T20:10:37.682Z,97.70
2018-04-14T20:13:05.927Z,98.40
2018-04-14T20:15:33.458Z,98.40
2018-04-14T20:18:01.151Z,98.40
2018-04-14T20:20:28.717Z,98.60
2018-04-14T20:22:56.160Z,98.60
2018-04-14T20:25:23.711Z,98.70
2018-04-14T20:27:51.271Z,98.50
2018-04-14T20:30:18.748Z,98.40
2018-04-14T20:32:46.220Z,98.50
2018-04-14T20:35:14.488Z,98.70
2018-04-14T20:37:41.994Z,98.70
2018-04-14T20:40:09.434Z,99.30
2018-04-14T20:42:36.920Z,99.00
2018-04-14T20:45:04.415Z,98.60
2018-04-14T20:47:31.856Z,99.10
2018-04-14T20:49:59.407Z,99.60
2018-04-14T20:52:26.872Z,99.60
2018-04-14T20:54:54.341Z,99.60
2018-04-14T20:57:21.867Z,99.50
2018-04-14T20:59:49.334Z,99.50
2018-04-14T21:02:16.819Z,99.70
2018-04-14T21:04:44.306Z,99.80
2018-04-14T21:07:14.883Z,99.00
2018-04-14T21:09:42.347Z,99.10
2018-04-14T21:12:09.866Z,99.30
2018-04-14T21:14:37.352Z,99.00
2018-04-14T21:17:04.842Z,98.90
2018-04-14T21:19:33.056Z,99.50
2018-04-14T21:22:00.515Z,99.50
2018-04-14T21:24:27.996Z,99.50
2018-04-14T21:26:55.458Z,99.80
2018-04-14T21:29:23.010Z,99.70
2018-04-14T21:31:50.488Z,99.70
2018-04-14T21:34:18.025Z,99.90
2018-04-14T21:36:45.537Z,99.90
2018-04-14T21:39:13.006Z,99.90
2018-04-14T21:41:40.477Z,99.90
2018-04-14T21:44:07.978Z,99.80
2018-04-14T21:46:35.423Z,99.60
2018-04-14T21:49:02.893Z,99.40
2018-04-14T21:51:30.438Z,99.10
2018-04-14T21:53:58.058Z,99.10
2018-04-14T21:56:25.545Z,99.20
2018-04-14T21:58:53.045Z,99.40
2018-04-14T22:01:21.260Z,98.80
2018-04-14T22:03:48.743Z,98.80
2018-04-14T22:06:16.237Z,98.90
2018-04-14T22:08:44.475Z,98.90
2018-04-14T22:11:11.915Z,98.90
2018-04-14T22:13:39.507Z,98.70
2018-04-14T22:16:06.991Z,99.10
2018-04-14T22:18:34.464Z,98.80
2018-04-14T22:21:01.979Z,98.90
2018-04-14T22:23:29.517Z,99.00
2018-04-14T22:25:57.073Z,99.90
2018-04-14T22:28:24.556Z,99.50
2018-04-14T22:30:52.015Z,99.40
2018-04-14T22:33:19.568Z,99.90
2018-04-14T22:35:47.119Z,99.70
2018-04-14T22:38:14.664Z,99.40
2018-04-14T22:40:42.159Z,99.50
2018-04-14T22:43:10.393Z,99.60
2018-04-14T22:45:37.844Z,99.60
2018-04-14T22:48:05.442Z,99.90
2018-04-14T22:50:32.940Z,99.90
2018-04-14T22:53:00.398Z,99.90
2018-04-14T22:55:27.870Z,99.90
2018-04-14T22:57:55.441Z,99.90
2018-04-14T23:00:22.940Z,99.90
2018-04-14T23:02:51.162Z,99.90
2018-04-14T23:05:18.634Z,99.90
2018-04-14T23:07:46.095Z,99.90
2018-04-14T23:10:13.647Z,99.90
2018-04-14T23:12:41.237Z,99.90
2018-04-14T23:15:09.479Z,99.90
2018-04-14T23:17:36.946Z,99.90
2018-04-14T23:20:04.440Z,99.90
2018-04-14T23:22:32.682Z,99.90
2018-04-14T23:25:00.123Z,99.90
2018-04-14T23:27:27.595Z,99.90
2018-04-14T23:29:55.044Z,99.90
2018-04-14T23:32:22.498Z,99.90
2018-04-14T23:34:50.126Z,99.90
2018-04-14T23:37:17.580Z,99.90
2018-04-14T23:39:45.077Z,99.90
2018-04-14T23:42:12.553Z,99.90
2018-04-14T23:44:40.011Z,99.90
2018-04-14T23:47:08.384Z,99.90
2018-04-14T23:49:35.851Z,99.90
2018-04-14T23:52:04.095Z,99.90
2018-04-14T23:54:31.606Z,99.90
2018-04-14T23:56:59.136Z,99.90
2018-04-14T23:59:26.675Z,99.90
